createdAt,value
2019-02-05T00:02:21.321Z,5.33
2019-02-05T00:04:52.529Z,5.10
2019-02-05T00:07:24.913Z,5.40
2019-02-05T00:09:56.045Z,5.60
2019-02-05T00:12:26.239Z,5.47
2019-02-05T00:14:58.081Z,5.60
2019-02-05T00:17:31.698Z,5.57
2019-02-05T00:20:02.725Z,5.97
2019-02-05T00:22:35.122Z,4.70
2019-02-05T00:25:07.606Z,5.07
2019-02-05T00:27:38.706Z,4.70
2019-02-05T00:30:11.110Z,5.60
2019-02-05T00:32:43.312Z,4.63
2019-02-05T00:35:14.868Z,4.93
2019-02-05T00:37:46.078Z,4.93
2019-02-05T00:40:18.089Z,4.20
2019-02-05T00:42:49.752Z,5.60
2019-02-05T00:45:23.082Z,4.70
2019-02-05T00:47:52.929Z,4.30
2019-02-05T00:50:24.159Z,5.20
2019-02-05T00:52:56.037Z,5.47
2019-02-05T00:55:27.094Z,4.80
2019-02-05T00:57:57.804Z,5.20
2019-02-05T01:00:30.073Z,4.33
2019-02-05T01:03:00.377Z,5.00
2019-02-05T01:05:32.024Z,5.23
2019-02-05T01:08:03.206Z,5.93
2019-02-05T01:10:35.041Z,5.87
2019-02-05T01:13:05.442Z,5.57
2019-02-05T01:15:35.340Z,5.83
2019-02-05T01:18:06.489Z,5.43
2019-02-05T01:20:36.300Z,5.70
2019-02-05T01:23:06.240Z,5.70
2019-02-05T01:25:36.171Z,5.80
2019-02-05T01:28:07.565Z,5.60
2019-02-05T01:30:37.461Z,5.50
2019-02-05T01:33:07.543Z,5.67
2019-02-05T01:35:37.733Z,5.20
2019-02-05T01:38:08.347Z,4.20
2019-02-05T01:40:39.459Z,4.70
2019-02-05T01:43:09.321Z,4.93
2019-02-05T01:45:39.150Z,5.50
2019-02-05T01:48:09.818Z,5.43
2019-02-05T01:50:40.383Z,4.60
2019-02-05T01:53:12.146Z,4.80
2019-02-05T01:55:41.429Z,6.53
2019-02-05T01:58:12.122Z,6.37
2019-02-05T02:00:43.778Z,4.90
2019-02-05T02:03:14.815Z,5.27
2019-02-05T02:05:46.038Z,5.40
2019-02-05T02:08:17.178Z,5.80
2019-02-05T02:10:48.245Z,5.83
2019-02-05T02:13:18.107Z,5.47
2019-02-05T02:15:49.126Z,6.50
2019-02-05T02:18:19.749Z,5.23
2019-02-05T02:20:51.450Z,6.77
2019-02-05T02:23:21.121Z,7.10
2019-02-05T02:25:51.898Z,6.80
2019-02-05T02:28:22.639Z,7.37
2019-02-05T02:30:54.832Z,7.60
2019-02-05T02:33:24.710Z,6.87
2019-02-05T02:35:57.832Z,7.93
2019-02-05T02:38:28.348Z,7.77
2019-02-05T02:40:58.518Z,7.43
2019-02-05T02:43:28.413Z,7.83
2019-02-05T02:45:59.364Z,6.90
2019-02-05T02:48:31.861Z,7.73
2019-02-05T02:51:03.524Z,7.10
2019-02-05T02:53:35.693Z,7.47
2019-02-05T02:56:06.389Z,6.70
2019-02-05T02:58:36.201Z,6.77
2019-02-05T03:01:08.582Z,6.57
2019-02-05T03:03:40.437Z,7.17
2019-02-05T03:06:14.404Z,6.70
2019-02-05T03:08:45.317Z,5.73
2019-02-05T03:11:16.477Z,6.67
2019-02-05T03:13:47.582Z,9.37
2019-02-05T03:16:19.380Z,7.40
2019-02-05T03:18:49.138Z,7.07
2019-02-05T03:21:19.846Z,7.03
2019-02-05T03:23:50.866Z,6.77
2019-02-05T03:26:21.550Z,6.93
2019-02-05T03:28:51.283Z,6.10
2019-02-05T03:31:21.366Z,6.40
2019-02-05T03:33:52.118Z,6.80
2019-02-05T03:36:22.800Z,6.87
2019-02-05T03:38:54.177Z,6.27
2019-02-05T03:41:24.988Z,7.07
2019-02-05T03:43:55.691Z,6.20
2019-02-05T03:46:27.279Z,6.07
2019-02-05T03:48:58.588Z,6.43
2019-02-05T03:51:31.250Z,6.93
2019-02-05T03:54:08.499Z,6.30
2019-02-05T03:56:56.026Z,5.93
2019-02-05T03:59:38.342Z,6.37
2019-02-05T04:02:24.077Z,7.10
2019-02-05T04:05:10.295Z,5.73
2019-02-05T04:07:50.483Z,6.83
2019-02-05T04:10:35.825Z,7.17
2019-02-05T04:13:29.665Z,7.07
2019-02-05T04:16:08.206Z,7.23
2019-02-05T04:18:40.554Z,7.80
2019-02-05T04:21:15.687Z,8.27
2019-02-05T04:23:50.830Z,7.37
2019-02-05T04:26:24.017Z,9.00
2019-02-05T04:28:59.159Z,7.90
2019-02-05T04:31:49.602Z,7.93
2019-02-05T04:34:36.033Z,8.97
2019-02-05T04:37:25.091Z,8.57
2019-02-05T04:39:59.355Z,9.10
2019-02-05T04:42:46.381Z,8.37
2019-02-05T04:45:38.629Z,9.30
2019-02-05T04:48:12.365Z,8.37
2019-02-05T04:50:46.433Z,7.83
2019-02-05T04:53:20.288Z,10.40
2019-02-05T04:56:12.158Z,9.87
2019-02-05T04:59:08.685Z,8.27
2019-02-05T05:01:49.345Z,8.90
2019-02-05T05:04:20.946Z,8.77
2019-02-05T05:06:58.071Z,9.33
2019-02-05T05:09:29.549Z,10.10
2019-02-05T05:11:59.326Z,9.50
2019-02-05T05:14:29.110Z,9.63
2019-02-05T05:17:00.441Z,9.53
2019-02-05T05:19:30.334Z,10.30
2019-02-05T05:22:00.213Z,10.27
2019-02-05T05:24:30.398Z,9.53
2019-02-05T05:27:02.045Z,10.57
2019-02-05T05:29:34.891Z,15.70
2019-02-05T05:32:05.316Z,11.03
2019-02-05T05:34:37.145Z,11.10
2019-02-05T05:37:07.425Z,10.23
2019-02-05T05:39:38.599Z,11.17
2019-02-05T05:42:10.377Z,9.70
2019-02-05T05:44:41.125Z,8.73
2019-02-05T05:47:12.188Z,9.87
2019-02-05T05:49:44.877Z,10.23
2019-02-05T05:52:14.686Z,9.93
2019-02-05T05:54:45.310Z,11.73
2019-02-05T05:57:18.696Z,10.43
2019-02-05T05:59:48.655Z,10.93
2019-02-05T06:02:19.977Z,11.93
2019-02-05T06:04:52.021Z,11.47
2019-02-05T06:07:23.627Z,11.50
2019-02-05T06:09:55.474Z,12.13
2019-02-05T06:12:26.517Z,14.00
2019-02-05T06:14:58.208Z,12.53
2019-02-05T06:17:27.872Z,13.47
2019-02-05T06:19:59.628Z,12.27
2019-02-05T06:22:30.260Z,13.40
2019-02-05T06:25:01.795Z,13.90
2019-02-05T06:27:31.633Z,12.00
2019-02-05T06:30:02.765Z,40.20
2019-02-05T06:32:35.796Z,12.03
2019-02-05T06:35:10.275Z,12.57
2019-02-05T06:37:41.542Z,57.63
2019-02-05T06:40:15.925Z,64.00
2019-02-05T06:42:46.722Z,66.33
2019-02-05T06:45:18.545Z,14.20
2019-02-05T06:47:48.264Z,11.80
2019-02-05T06:50:19.696Z,15.40
2019-02-05T06:52:49.799Z,14.03
2019-02-05T06:55:19.591Z,13.90
2019-02-05T06:57:50.194Z,12.73
2019-02-05T07:00:23.598Z,14.47
2019-02-05T07:02:55.066Z,15.03
2019-02-05T07:05:25.906Z,15.13
2019-02-05T07:07:57.369Z,15.10
2019-02-05T07:10:28.641Z,12.30
2019-02-05T07:13:01.547Z,14.40
2019-02-05T07:15:32.365Z,13.47
2019-02-05T07:18:03.086Z,14.63
2019-02-05T07:20:35.737Z,14.57
2019-02-05T07:23:07.086Z,13.03
2019-02-05T07:25:36.982Z,15.50
2019-02-05T07:28:06.757Z,16.57
2019-02-05T07:30:38.656Z,16.37
2019-02-05T07:33:09.442Z,16.17
2019-02-05T07:35:40.585Z,15.63
2019-02-05T07:38:10.676Z,17.10
2019-02-05T07:40:41.538Z,16.17
2019-02-05T07:43:11.470Z,16.17
2019-02-05T07:45:42.253Z,16.40
2019-02-05T07:48:13.537Z,16.30
2019-02-05T07:50:44.674Z,16.37
2019-02-05T07:53:15.421Z,16.97
2019-02-05T07:55:46.390Z,17.83
2019-02-05T07:58:18.341Z,14.17
2019-02-05T08:00:50.685Z,18.77
2019-02-05T08:03:21.537Z,16.43
2019-02-05T08:05:52.589Z,16.63
2019-02-05T08:08:23.716Z,16.97
2019-02-05T08:10:54.531Z,16.43
2019-02-05T08:13:25.239Z,17.67
2019-02-05T08:15:55.949Z,16.47
2019-02-05T08:18:26.979Z,17.40
2019-02-05T08:20:57.743Z,17.83
2019-02-05T08:23:28.965Z,17.60
2019-02-05T08:25:58.870Z,17.17
2019-02-05T08:28:40.619Z,17.47
2019-02-05T08:31:04.471Z,16.53
2019-02-05T08:33:35.408Z,15.77
2019-02-05T08:36:07.381Z,17.53
2019-02-05T08:38:37.539Z,18.53
2019-02-05T08:41:07.763Z,17.53
2019-02-05T08:43:38.510Z,18.43
2019-02-05T08:46:09.181Z,18.30
2019-02-05T08:48:40.197Z,17.57
2019-02-05T08:51:11.690Z,17.80
2019-02-05T08:53:41.046Z,17.80
2019-02-05T08:56:11.322Z,18.93
2019-02-05T08:58:43.283Z,18.83
2019-02-05T09:01:14.514Z,18.80
2019-02-05T09:03:44.426Z,17.43
2019-02-05T09:06:15.961Z,17.67
2019-02-05T09:08:47.112Z,18.53
2019-02-05T09:11:19.745Z,22.33
2019-02-05T09:13:50.431Z,19.60
2019-02-05T09:16:20.218Z,18.23
2019-02-05T09:18:50.961Z,17.87
2019-02-05T09:21:21.948Z,16.90
2019-02-05T09:23:54.493Z,16.10
2019-02-05T09:26:24.545Z,15.77
2019-02-05T09:28:54.440Z,18.27
2019-02-05T09:31:25.449Z,16.23
2019-02-05T09:33:55.641Z,15.77
2019-02-05T09:36:28.033Z,15.83
2019-02-05T09:39:00.594Z,16.77
2019-02-05T09:41:31.247Z,15.70
2019-02-05T09:44:02.129Z,15.77
2019-02-05T09:46:32.878Z,14.73
2019-02-05T09:49:03.950Z,15.73
2019-02-05T09:51:34.490Z,15.03
2019-02-05T09:54:05.265Z,15.60
2019-02-05T09:56:35.927Z,14.90
2019-02-05T09:59:07.502Z,15.97
2019-02-05T10:01:38.202Z,15.47
2019-02-05T10:04:08.170Z,15.20
2019-02-05T10:06:40.562Z,15.33
2019-02-05T10:09:13.963Z,14.67
2019-02-05T10:11:44.489Z,16.03
2019-02-05T10:14:15.226Z,15.47
2019-02-05T10:16:45.085Z,15.67
2019-02-05T10:19:17.061Z,16.00
2019-02-05T10:21:48.013Z,17.07
2019-02-05T10:24:19.062Z,16.87
2019-02-05T10:26:49.025Z,18.13
2019-02-05T10:29:19.837Z,16.33
2019-02-05T10:31:50.849Z,17.20
2019-02-05T10:34:33.602Z,20.30
2019-02-05T10:36:55.893Z,17.43
2019-02-05T10:39:27.370Z,16.57
2019-02-05T10:41:58.465Z,16.83
2019-02-05T10:44:30.181Z,17.50
2019-02-05T10:47:02.106Z,17.23
2019-02-05T10:49:33.349Z,17.37
2019-02-05T10:52:03.225Z,17.90
2019-02-05T10:54:35.456Z,16.63
2019-02-05T10:57:08.238Z,17.07
2019-02-05T10:59:39.527Z,16.87
2019-02-05T11:02:12.677Z,17.10
2019-02-05T11:04:43.481Z,16.60
2019-02-05T11:07:14.105Z,17.80
2019-02-05T11:09:45.121Z,17.27
2019-02-05T11:12:15.951Z,16.50
2019-02-05T11:14:49.290Z,17.57
2019-02-05T11:17:19.183Z,17.33
2019-02-05T11:19:48.906Z,15.67
2019-02-05T11:22:18.141Z,16.70
2019-02-05T11:24:49.659Z,16.00
2019-02-05T11:27:22.131Z,16.53
2019-02-05T11:29:52.894Z,18.10
2019-02-05T11:32:23.877Z,16.80
2019-02-05T11:34:54.094Z,16.00
2019-02-05T11:37:25.250Z,16.43
2019-02-05T11:39:55.124Z,17.63
2019-02-05T11:42:24.969Z,16.23
2019-02-05T11:44:57.325Z,17.70
2019-02-05T11:47:26.976Z,18.37
2019-02-05T11:49:58.915Z,19.20
2019-02-05T11:52:28.605Z,16.90
2019-02-05T11:55:00.520Z,17.23
2019-02-05T11:57:31.537Z,16.67
2019-02-05T12:00:01.293Z,16.63
2019-02-05T12:02:31.073Z,17.97
2019-02-05T12:05:01.815Z,18.97
2019-02-05T12:07:33.677Z,18.97
2019-02-05T12:10:07.693Z,19.50
2019-02-05T12:12:40.393Z,19.03
2019-02-05T12:15:12.529Z,19.70
2019-02-05T12:17:45.227Z,19.20
2019-02-05T12:20:15.845Z,18.73
2019-02-05T12:22:47.154Z,19.10
2019-02-05T12:25:22.501Z,20.83
2019-02-05T12:27:53.186Z,23.30
2019-02-05T12:30:29.992Z,23.27
2019-02-05T12:33:02.101Z,22.53
2019-02-05T12:35:33.194Z,23.73
2019-02-05T12:38:04.024Z,20.90
2019-02-05T12:40:33.089Z,20.60
2019-02-05T12:43:04.201Z,19.03
2019-02-05T12:45:37.305Z,20.63
2019-02-05T12:48:07.334Z,16.67
2019-02-05T12:50:39.239Z,17.40
2019-02-05T12:53:10.098Z,16.70
2019-02-05T12:55:41.858Z,16.23
2019-02-05T12:58:12.046Z,14.87
2019-02-05T13:00:56.693Z,16.57
2019-02-05T13:03:17.265Z,17.80
2019-02-05T13:05:48.523Z,16.27
2019-02-05T13:08:19.329Z,17.27
2019-02-05T13:10:50.255Z,17.43
2019-02-05T13:13:21.986Z,16.80
2019-02-05T13:15:52.937Z,17.47
2019-02-05T13:18:25.258Z,17.77
2019-02-05T13:20:55.213Z,17.77
2019-02-05T13:23:24.913Z,18.53
2019-02-05T13:25:55.805Z,18.20
2019-02-05T13:28:26.421Z,17.87
2019-02-05T13:31:07.654Z,18.00
2019-02-05T13:33:33.963Z,18.50
2019-02-05T13:36:04.965Z,17.77
2019-02-05T13:38:35.460Z,18.90
2019-02-05T13:41:05.861Z,18.10
2019-02-05T13:43:38.294Z,17.60
2019-02-05T13:46:09.520Z,18.40
2019-02-05T13:48:40.333Z,18.27
2019-02-05T13:51:10.980Z,18.87
2019-02-05T13:53:40.723Z,17.63
2019-02-05T13:56:10.433Z,17.00
2019-02-05T13:58:40.198Z,17.83
2019-02-05T14:01:19.727Z,17.93
2019-02-05T14:03:43.243Z,18.97
2019-02-05T14:06:14.866Z,17.93
2019-02-05T14:08:46.422Z,18.03
2019-02-05T14:11:18.098Z,18.50
2019-02-05T14:13:51.159Z,18.57
2019-02-05T14:16:21.164Z,17.87
2019-02-05T14:18:55.454Z,17.20
2019-02-05T14:21:23.082Z,17.50
2019-02-05T14:23:55.489Z,17.43
2019-02-05T14:26:26.233Z,16.33
2019-02-05T14:28:59.634Z,17.80
2019-02-05T14:31:32.495Z,17.30
2019-02-05T14:34:03.200Z,16.57
2019-02-05T14:36:33.690Z,17.47
2019-02-05T14:39:05.441Z,18.27
2019-02-05T14:41:36.191Z,17.17
2019-02-05T14:44:05.969Z,16.47
2019-02-05T14:46:37.763Z,16.40
2019-02-05T14:49:09.806Z,15.10
2019-02-05T14:51:39.914Z,15.87
2019-02-05T14:54:09.781Z,16.43
2019-02-05T14:56:41.979Z,16.43
2019-02-05T14:59:12.146Z,15.43
2019-02-05T15:01:43.551Z,15.63
2019-02-05T15:04:13.801Z,15.30
2019-02-05T15:06:45.338Z,15.30
2019-02-05T15:09:16.408Z,14.77
2019-02-05T15:11:48.445Z,15.50
2019-02-05T15:14:19.617Z,14.77
2019-02-05T15:16:51.466Z,14.97
2019-02-05T15:19:21.253Z,15.13
2019-02-05T15:22:12.059Z,15.37
2019-02-05T15:24:43.462Z,24.57
2019-02-05T15:27:14.335Z,14.87
2019-02-05T15:29:45.240Z,14.87
2019-02-05T15:32:17.094Z,15.10
2019-02-05T15:34:47.281Z,15.07
2019-02-05T15:37:17.504Z,14.83
2019-02-05T15:39:50.414Z,15.67
2019-02-05T15:42:22.188Z,14.90
2019-02-05T15:44:53.866Z,14.60
2019-02-05T15:47:26.287Z,14.67
2019-02-05T15:50:05.906Z,14.87
2019-02-05T15:52:28.802Z,14.13
2019-02-05T15:55:00.381Z,14.17
2019-02-05T15:57:31.319Z,14.13
2019-02-05T16:00:03.041Z,14.20
2019-02-05T16:02:34.189Z,13.10
2019-02-05T16:05:05.771Z,13.93
2019-02-05T16:07:36.749Z,13.73
2019-02-05T16:10:11.894Z,14.60
2019-02-05T16:12:42.634Z,13.53
2019-02-05T16:15:13.290Z,13.70
2019-02-05T16:17:43.213Z,13.70
2019-02-05T16:20:14.133Z,12.97
2019-02-05T16:22:43.921Z,13.27
2019-02-05T16:25:14.857Z,13.67
2019-02-05T16:27:49.234Z,13.40
2019-02-05T16:30:19.825Z,14.85
2019-02-05T16:32:50.541Z,13.37
2019-02-05T16:35:22.123Z,21.57
2019-02-05T16:37:53.472Z,13.80
2019-02-05T16:40:41.372Z,13.60
2019-02-05T16:43:13.297Z,12.87
2019-02-05T16:45:42.994Z,11.73
2019-02-05T16:48:13.945Z,13.00
2019-02-05T16:50:46.281Z,11.47
2019-02-05T16:53:17.313Z,13.57
2019-02-05T16:55:49.915Z,11.90
2019-02-05T16:58:23.983Z,12.43
2019-02-05T17:00:56.106Z,13.47
2019-02-05T17:03:26.010Z,12.50
2019-02-05T17:05:56.419Z,13.27
2019-02-05T17:08:27.058Z,13.00
2019-02-05T17:11:00.253Z,13.63
2019-02-05T17:13:31.380Z,16.03
2019-02-05T17:16:03.086Z,15.53
2019-02-05T17:18:33.072Z,14.50
2019-02-05T17:21:04.067Z,15.27
2019-02-05T17:23:33.966Z,13.87
2019-02-05T17:26:05.750Z,32.33
2019-02-05T17:28:35.810Z,20.23
2019-02-05T17:31:06.005Z,16.20
2019-02-05T17:33:36.783Z,15.30
2019-02-05T17:36:07.550Z,16.77
2019-02-05T17:38:36.833Z,17.50
2019-02-05T17:41:07.531Z,17.17
2019-02-05T17:43:38.449Z,16.80
2019-02-05T17:46:08.757Z,18.53
2019-02-05T17:48:39.912Z,16.90
2019-02-05T17:51:11.228Z,18.27
2019-02-05T17:53:42.933Z,17.90
2019-02-05T17:56:14.386Z,17.63
2019-02-05T17:58:45.168Z,16.87
2019-02-05T18:01:16.171Z,17.00
2019-02-05T18:03:46.061Z,17.37
2019-02-05T18:06:17.032Z,17.50
2019-02-05T18:08:47.201Z,15.77
2019-02-05T18:11:19.304Z,17.20
2019-02-05T18:13:50.105Z,17.50
2019-02-05T18:16:21.162Z,17.23
2019-02-05T18:18:52.941Z,19.97
2019-02-05T18:21:22.703Z,17.10
2019-02-05T18:23:54.441Z,15.20
2019-02-05T18:26:25.393Z,17.73
2019-02-05T18:28:56.130Z,16.87
2019-02-05T18:31:26.917Z,20.20
2019-02-05T18:33:58.038Z,18.63
2019-02-05T18:36:30.110Z,18.50
2019-02-05T18:39:01.560Z,17.40
2019-02-05T18:41:31.467Z,17.07
2019-02-05T18:44:02.009Z,17.23
2019-02-05T18:46:32.695Z,16.83
2019-02-05T18:49:04.995Z,15.87
2019-02-05T18:51:33.933Z,15.50
2019-02-05T18:54:04.675Z,16.37
2019-02-05T18:56:36.437Z,15.47
2019-02-05T18:59:06.188Z,15.30
2019-02-05T19:01:35.984Z,14.77
2019-02-05T19:04:07.345Z,14.57
2019-02-05T19:06:37.271Z,14.40
2019-02-05T19:09:10.731Z,14.30
2019-02-05T19:11:41.401Z,14.40
2019-02-05T19:14:13.874Z,13.97
2019-02-05T19:16:44.559Z,13.00
2019-02-05T19:19:15.499Z,14.47
2019-02-05T19:21:46.524Z,13.47
2019-02-05T19:24:18.862Z,14.20
2019-02-05T19:26:48.893Z,13.97
2019-02-05T19:29:20.053Z,13.53
2019-02-05T19:31:50.655Z,13.47
2019-02-05T19:34:22.742Z,13.20
2019-02-05T19:36:53.425Z,13.00
2019-02-05T19:39:24.466Z,13.10
2019-02-05T19:41:55.599Z,13.47
2019-02-05T19:44:27.414Z,13.33
2019-02-05T19:46:59.234Z,13.73
2019-02-05T19:49:30.523Z,13.03
2019-02-05T19:52:02.240Z,13.07
2019-02-05T19:54:33.308Z,14.57
2019-02-05T19:57:06.089Z,13.50
2019-02-05T19:59:36.200Z,12.50
2019-02-05T20:02:06.720Z,12.63
2019-02-05T20:04:37.618Z,12.23
2019-02-05T20:07:10.008Z,11.00
2019-02-05T20:09:40.654Z,13.20
2019-02-05T20:12:10.413Z,13.43
2019-02-05T20:14:41.125Z,13.47
2019-02-05T20:17:12.922Z,14.23
2019-02-05T20:19:43.643Z,13.00
2019-02-05T20:22:14.322Z,13.03
2019-02-05T20:24:44.030Z,13.43
2019-02-05T20:27:16.486Z,12.77
2019-02-05T20:29:46.597Z,13.10
2019-02-05T20:32:16.398Z,12.27
2019-02-05T20:34:47.057Z,13.53
2019-02-05T20:37:18.736Z,13.27
2019-02-05T20:39:49.550Z,13.17
2019-02-05T20:42:19.309Z,13.47
2019-02-05T20:44:50.172Z,12.87
2019-02-05T20:47:19.885Z,13.23
2019-02-05T20:49:49.634Z,12.73
2019-02-05T20:52:22.061Z,14.00
2019-02-05T20:54:53.041Z,14.13
2019-02-05T20:57:24.163Z,12.70
2019-02-05T20:59:55.534Z,15.70
2019-02-05T21:02:26.252Z,13.43
2019-02-05T21:04:57.303Z,12.87
2019-02-05T21:07:28.101Z,14.20
2019-02-05T21:09:59.168Z,13.43
2019-02-05T21:12:31.627Z,11.53
2019-02-05T21:15:02.416Z,13.07
2019-02-05T21:17:34.117Z,13.43
2019-02-05T21:20:08.774Z,13.47
2019-02-05T21:22:39.621Z,13.00
2019-02-05T21:25:15.271Z,13.07
2019-02-05T21:27:45.951Z,13.20
2019-02-05T21:30:22.771Z,11.90
2019-02-05T21:32:53.826Z,12.97
2019-02-05T21:35:24.719Z,14.43
2019-02-05T21:37:54.695Z,34.80
2019-02-05T21:40:26.031Z,15.73
2019-02-05T21:42:57.198Z,14.40
2019-02-05T21:45:35.019Z,14.30
2019-02-05T21:48:05.344Z,13.37
2019-02-05T21:50:35.285Z,11.07
2019-02-05T21:53:06.105Z,15.07
2019-02-05T21:55:36.781Z,14.50
2019-02-05T21:58:07.486Z,13.20
2019-02-05T22:00:38.266Z,13.00
2019-02-05T22:03:08.955Z,13.70
2019-02-05T22:05:38.806Z,13.23
2019-02-05T22:08:09.912Z,13.10
2019-02-05T22:10:44.101Z,10.80
2019-02-05T22:13:14.362Z,12.33
2019-02-05T22:15:44.516Z,11.97
2019-02-05T22:18:15.291Z,12.20
2019-02-05T22:20:45.377Z,12.47
2019-02-05T22:23:16.537Z,12.17
2019-02-05T22:25:45.526Z,12.90
2019-02-05T22:28:16.648Z,11.63
2019-02-05T22:30:46.906Z,11.07
2019-02-05T22:33:17.008Z,12.83
2019-02-05T22:35:46.683Z,13.40
2019-02-05T22:38:19.095Z,13.33
2019-02-05T22:40:49.194Z,12.47
2019-02-05T22:43:22.029Z,13.67
2019-02-05T22:45:51.845Z,13.23
2019-02-05T22:48:22.570Z,11.83
2019-02-05T22:50:52.553Z,13.77
2019-02-05T22:53:25.101Z,13.10
2019-02-05T22:55:55.712Z,13.33
2019-02-05T22:58:26.803Z,12.77
2019-02-05T23:01:02.637Z,13.40
2019-02-05T23:03:46.333Z,12.77
2019-02-05T23:06:24.780Z,36.73
2019-02-05T23:08:57.441Z,14.67
2019-02-05T23:11:45.085Z,13.67
2019-02-05T23:14:15.177Z,12.87
2019-02-05T23:16:46.356Z,11.33
2019-02-05T23:19:16.617Z,13.60
2019-02-05T23:21:46.518Z,13.40
2019-02-05T23:24:16.189Z,13.20
2019-02-05T23:26:46.934Z,12.97
2019-02-05T23:29:18.554Z,13.00
2019-02-05T23:31:49.609Z,12.33
2019-02-05T23:34:21.130Z,12.27
2019-02-05T23:36:52.205Z,11.77
2019-02-05T23:39:22.094Z,12.27
2019-02-05T23:41:53.713Z,11.73
2019-02-05T23:44:24.780Z,11.77
2019-02-05T23:46:56.012Z,12.00
2019-02-05T23:49:25.885Z,11.60
2019-02-05T23:51:57.461Z,11.60
2019-02-05T23:54:27.210Z,11.17
2019-02-05T23:56:59.077Z,9.53
2019-02-05T23:59:30.205Z,11.60
